Time;durP1;ratioP1;P1;durP2;ratioP2;P2;SDS_P1;SDS_P2;PMS_P1;PMS_P2;Temp;Humidity;BMP_temperature;BMP_pressure;BME280_temperature;BME280_humidity;BME280_pressure;Samples;Min_cycle;Max_cycle;Signal;HPM_P1;HPM_P2
2023/07/24 00:02:01;;;;;;;4.82;4.53;;;;;;;;;;5116165;28;20366;-80
2023/07/24 00:04:27;;;;;;;5.32;5.03;;;;;;;;;;5099445;28;20392;-81
2023/07/24 00:06:54;;;;;;;4.57;4.38;;;;;;;;;;5099660;28;20055;-80
2023/07/24 00:09:20;;;;;;;4.85;4.60;;;;;;;;;;5117146;28;20047;-81
2023/07/24 00:11:46;;;;;;;5.03;4.63;;;;;;;;;;5116222;28;20088;-80
2023/07/24 00:14:12;;;;;;;5.55;5.25;;;;;;;;;;5116962;28;20051;-81
2023/07/24 00:16:38;;;;;;;5.35;4.95;;;;;;;;;;5099290;28;20120;-81
2023/07/24 00:19:05;;;;;;;5.50;5.10;;;;;;;;;;5117022;28;20040;-81
2023/07/24 00:21:31;;;;;;;5.68;5.38;;;;;;;;;;5116572;28;20480;-81
2023/07/24 00:23:57;;;;;;;5.47;5.18;;;;;;;;;;5115555;28;20043;-81
2023/07/24 00:26:23;;;;;;;5.88;5.50;;;;;;;;;;5115955;28;20055;-81
2023/07/24 00:28:49;;;;;;;5.70;5.20;;;;;;;;;;5116167;28;20359;-80
2023/07/24 00:31:15;;;;;;;5.95;5.45;;;;;;;;;;5117599;28;20054;-81
2023/07/24 00:33:41;;;;;;;6.00;5.70;;;;;;;;;;5115796;28;20047;-81
2023/07/24 00:36:07;;;;;;;6.53;6.22;;;;;;;;;;5098762;28;20047;-80
2023/07/24 00:38:33;;;;;;;5.32;5.03;;;;;;;;;;5116229;28;20431;-80
2023/07/24 00:40:59;;;;;;;6.43;5.82;;;;;;;;;;5115645;28;20098;-81
2023/07/24 00:43:25;;;;;;;6.65;6.10;;;;;;;;;;5117094;28;20051;-80
2023/07/24 00:45:51;;;;;;;5.97;5.47;;;;;;;;;;5098542;28;20050;-80
2023/07/24 00:48:18;;;;;;;5.47;5.07;;;;;;;;;;5116508;28;20047;-80
2023/07/24 00:50:44;;;;;;;6.05;5.60;;;;;;;;;;5115398;28;20056;-81
2023/07/24 00:53:12;;;;;;;5.43;5.13;;;;;;;;;;5115667;28;20114;-81
2023/07/24 00:55:38;;;;;;;5.00;4.70;;;;;;;;;;5116099;28;20490;-81
2023/07/24 00:58:05;;;;;;;5.05;4.68;;;;;;;;;;5115653;28;20051;-81
2023/07/24 01:00:31;;;;;;;4.75;4.35;;;;;;;;;;5098988;28;20051;-81
2023/07/24 01:02:57;;;;;;;4.22;3.95;;;;;;;;;;5115186;28;20096;-81
2023/07/24 01:05:25;;;;;;;3.88;3.58;;;;;;;;;;5114850;28;20044;-81
2023/07/24 01:07:52;;;;;;;4.75;4.45;;;;;;;;;;5114941;28;20039;-81
2023/07/24 01:10:18;;;;;;;4.72;4.45;;;;;;;;;;5115826;28;20043;-81
2023/07/24 01:12:59;;;;;;;5.05;4.60;;;;;;;;;;5116005;28;20054;-81
2023/07/24 01:15:33;;;;;;;4.00;3.67;;;;;;;;;;5115752;28;20055;-81
2023/07/24 01:18:01;;;;;;;3.60;3.40;;;;;;;;;;5115974;28;20083;-81
2023/07/24 01:20:29;;;;;;;4.25;3.97;;;;;;;;;;5115887;28;20067;-81
2023/07/24 01:22:55;;;;;;;3.70;3.50;;;;;;;;;;5115116;28;20040;-81
2023/07/24 01:25:35;;;;;;;4.78;4.30;;;;;;;;;;5114217;28;20051;-81
2023/07/24 01:28:01;;;;;;;3.63;3.42;;;;;;;;;;5115012;28;20438;-80
2023/07/24 01:30:27;;;;;;;4.30;4.10;;;;;;;;;;5114738;28;20051;-81
2023/07/24 01:32:54;;;;;;;4.57;4.18;;;;;;;;;;5115734;28;20092;-81
2023/07/24 01:35:20;;;;;;;4.18;3.90;;;;;;;;;;5097692;28;20550;-81
2023/07/24 01:37:47;;;;;;;4.25;3.78;;;;;;;;;;5115786;28;20066;-81
2023/07/24 01:40:13;;;;;;;4.43;4.22;;;;;;;;;;5114341;28;20058;-81
2023/07/24 01:42:39;;;;;;;4.40;4.10;;;;;;;;;;5115354;28;20104;-81
2023/07/24 01:45:06;;;;;;;4.30;4.10;;;;;;;;;;5114145;28;20096;-80
2023/07/24 01:47:32;;;;;;;4.18;3.85;;;;;;;;;;5114316;28;20506;-80
2023/07/24 01:49:58;;;;;;;4.63;4.22;;;;;;;;;;5114314;28;20439;-81
2023/07/24 01:52:25;;;;;;;4.55;4.30;;;;;;;;;;5113963;28;20040;-81
2023/07/24 01:54:51;;;;;;;4.03;3.72;;;;;;;;;;5114017;28;20083;-80
2023/07/24 01:57:17;;;;;;;4.55;4.15;;;;;;;;;;5114014;28;20062;-81
2023/07/24 01:59:44;;;;;;;3.70;3.50;;;;;;;;;;5115043;28;20130;-80
2023/07/24 02:02:10;;;;;;;4.43;3.97;;;;;;;;;;5114423;28;20035;-80
2023/07/24 02:04:36;;;;;;;3.63;3.40;;;;;;;;;;5113912;28;20051;-81
2023/07/24 02:07:03;;;;;;;4.15;3.95;;;;;;;;;;5114256;28;20039;-81
2023/07/24 02:09:29;;;;;;;4.05;3.85;;;;;;;;;;5115485;28;20047;-81
2023/07/24 02:11:55;;;;;;;3.28;3.05;;;;;;;;;;5096433;28;20043;-81
2023/07/24 02:14:21;;;;;;;3.45;3.15;;;;;;;;;;5114795;28;20058;-81
2023/07/24 02:16:47;;;;;;;4.32;3.92;;;;;;;;;;5112873;28;20054;-81
2023/07/24 02:19:13;;;;;;;3.38;3.17;;;;;;;;;;5114138;28;20043;-81
2023/07/24 02:21:40;;;;;;;3.30;3.10;;;;;;;;;;5114664;28;20047;-81
2023/07/24 02:24:06;;;;;;;3.50;3.20;;;;;;;;;;5114473;28;20051;-81
2023/07/24 02:26:32;;;;;;;4.05;3.80;;;;;;;;;;5113688;28;20343;-81
2023/07/24 02:28:59;;;;;;;3.78;3.55;;;;;;;;;;5096752;28;20047;-81
2023/07/24 02:31:25;;;;;;;3.53;3.33;;;;;;;;;;5113417;28;20036;-81
2023/07/24 02:33:51;;;;;;;3.63;3.42;;;;;;;;;;5113230;28;20408;-81
2023/07/24 02:36:17;;;;;;;3.90;3.70;;;;;;;;;;5114301;28;20051;-81
2023/07/24 02:38:43;;;;;;;3.88;3.47;;;;;;;;;;5115165;28;20116;-81
2023/07/24 02:41:09;;;;;;;3.47;3.28;;;;;;;;;;5114649;28;20130;-81
2023/07/24 02:43:35;;;;;;;2.92;2.65;;;;;;;;;;5113163;28;20091;-80
2023/07/24 02:46:04;;;;;;;3.60;3.40;;;;;;;;;;5113976;28;20051;-81
2023/07/24 02:48:30;;;;;;;4.30;3.90;;;;;;;;;;5096328;28;20500;-81
2023/07/24 02:50:56;;;;;;;3.38;3.28;;;;;;;;;;5113801;28;20051;-80
2023/07/24 02:53:22;;;;;;;3.63;3.42;;;;;;;;;;5113939;28;20478;-80
2023/07/24 02:55:48;;;;;;;3.95;3.58;;;;;;;;;;5113985;28;20055;-81
2023/07/24 02:58:15;;;;;;;3.40;3.20;;;;;;;;;;5113360;28;20142;-81
2023/07/24 03:00:41;;;;;;;3.47;3.17;;;;;;;;;;5113401;28;20062;-81
2023/07/24 03:03:07;;;;;;;3.42;3.22;;;;;;;;;;5114072;28;20445;-81
2023/07/24 03:05:36;;;;;;;3.75;3.50;;;;;;;;;;5113025;28;20054;-81
2023/07/24 03:08:02;;;;;;;4.20;3.95;;;;;;;;;;5113808;28;20130;-81
2023/07/24 03:10:28;;;;;;;3.58;3.38;;;;;;;;;;5112902;28;20051;-81
2023/07/24 03:12:54;;;;;;;3.92;3.72;;;;;;;;;;5112646;28;20048;-80
2023/07/24 03:15:21;;;;;;;4.15;3.85;;;;;;;;;;5112652;28;20047;-80
2023/07/24 03:17:47;;;;;;;4.30;3.95;;;;;;;;;;5112824;28;20048;-80
2023/07/24 03:20:17;;;;;;;3.30;3.10;;;;;;;;;;5113880;28;20047;-80
2023/07/24 03:22:44;;;;;;;3.65;3.45;;;;;;;;;;5095608;28;20055;-80
2023/07/24 03:25:10;;;;;;;4.70;4.05;;;;;;;;;;5095817;28;20055;-81
2023/07/24 03:27:36;;;;;;;4.22;3.92;;;;;;;;;;5113801;28;20048;-81
2023/07/24 03:30:03;;;;;;;4.47;4.07;;;;;;;;;;5116178;28;20054;-80
2023/07/24 03:32:29;;;;;;;3.90;3.70;;;;;;;;;;5116666;28;20077;-81
2023/07/24 03:34:55;;;;;;;4.90;4.53;;;;;;;;;;5116864;28;20051;-80
2023/07/24 03:37:21;;;;;;;4.00;3.70;;;;;;;;;;5116938;28;20044;-80
2023/07/24 03:39:47;;;;;;;4.28;4.03;;;;;;;;;;5117765;28;20130;-81
2023/07/24 03:42:25;;;;;;;5.38;5.07;;;;;;;;;;5117034;28;20513;-80
2023/07/24 03:44:51;;;;;;;5.03;4.72;;;;;;;;;;5117063;28;20051;-80
2023/07/24 03:47:17;;;;;;;5.28;4.97;;;;;;;;;;5116556;28;20060;-80
2023/07/24 03:49:43;;;;;;;4.57;4.32;;;;;;;;;;5117556;28;20469;-81
2023/07/24 03:52:09;;;;;;;5.32;5.03;;;;;;;;;;5116391;28;20052;-81
2023/07/24 03:54:35;;;;;;;5.53;5.07;;;;;;;;;;5116169;28;20079;-81
2023/07/24 03:57:01;;;;;;;5.22;4.93;;;;;;;;;;5116382;28;20398;-80
2023/07/24 03:59:27;;;;;;;5.40;5.10;;;;;;;;;;5117428;28;20051;-80
2023/07/24 04:01:53;;;;;;;5.53;4.97;;;;;;;;;;5117359;28;20477;-80
2023/07/24 04:04:19;;;;;;;5.90;5.40;;;;;;;;;;5117324;28;20040;-80
2023/07/24 04:06:46;;;;;;;6.28;5.88;;;;;;;;;;5117197;28;20043;-80
2023/07/24 04:09:14;;;;;;;6.60;6.03;;;;;;;;;;5116255;28;20054;-81
2023/07/24 04:11:41;;;;;;;7.47;7.07;;;;;;;;;;5117059;28;20043;-81
2023/07/24 04:14:07;;;;;;;7.20;6.70;;;;;;;;;;5100016;28;20082;-80
2023/07/24 04:16:33;;;;;;;7.35;6.95;;;;;;;;;;5116817;28;20044;-81
2023/07/24 04:18:59;;;;;;;7.32;6.82;;;;;;;;;;5115823;28;20048;-80
2023/07/24 04:21:25;;;;;;;7.90;7.40;;;;;;;;;;5116310;28;20470;-80
2023/07/24 04:23:51;;;;;;;7.10;6.60;;;;;;;;;;5116701;28;20058;-80
2023/07/24 04:26:17;;;;;;;7.65;7.25;;;;;;;;;;5116989;28;20047;-80
2023/07/24 04:28:43;;;;;;;8.93;8.18;;;;;;;;;;5117670;28;20043;-80
2023/07/24 04:31:09;;;;;;;7.88;7.28;;;;;;;;;;5116093;28;20430;-80
2023/07/24 04:33:35;;;;;;;7.68;7.05;;;;;;;;;;5116810;28;20043;-80
2023/07/24 04:36:01;;;;;;;7.78;7.28;;;;;;;;;;5116760;28;20047;-80
2023/07/24 04:38:28;;;;;;;7.70;7.10;;;;;;;;;;5116579;28;20048;-80
2023/07/24 04:40:54;;;;;;;7.15;6.75;;;;;;;;;;5114555;28;20078;-80
2023/07/24 04:43:20;;;;;;;8.35;7.85;;;;;;;;;;5115944;28;20104;-80
2023/07/24 04:45:46;;;;;;;7.90;7.32;;;;;;;;;;5115229;28;20043;-80
2023/07/24 04:48:12;;;;;;;7.78;7.28;;;;;;;;;;5116116;28;20527;-80
2023/07/24 04:50:38;;;;;;;8.43;7.95;;;;;;;;;;5116474;28;20435;-80
2023/07/24 04:53:04;;;;;;;8.18;7.78;;;;;;;;;;5098164;28;20047;-80
2023/07/24 04:55:30;;;;;;;7.88;7.38;;;;;;;;;;5098744;28;20047;-80
2023/07/24 04:57:56;;;;;;;8.10;7.63;;;;;;;;;;5115341;28;20040;-80
2023/07/24 05:00:22;;;;;;;8.32;7.82;;;;;;;;;;5098309;28;20541;-80
2023/07/24 05:02:48;;;;;;;8.45;7.85;;;;;;;;;;5116127;28;20048;-80
2023/07/24 05:05:14;;;;;;;7.93;7.47;;;;;;;;;;5097936;28;20066;-80
2023/07/24 05:07:40;;;;;;;8.07;7.57;;;;;;;;;;5116090;28;20044;-80
2023/07/24 05:10:07;;;;;;;8.07;7.50;;;;;;;;;;5098555;28;20039;-81
2023/07/24 05:12:33;;;;;;;6.85;6.45;;;;;;;;;;5114851;28;20489;-81
2023/07/24 05:14:59;;;;;;;8.25;7.75;;;;;;;;;;5115333;28;20044;-81
2023/07/24 05:17:25;;;;;;;8.13;7.40;;;;;;;;;;5115950;28;20043;-81
2023/07/24 05:19:51;;;;;;;8.13;7.53;;;;;;;;;;5115962;28;20126;-80
2023/07/24 05:22:17;;;;;;;7.85;7.35;;;;;;;;;;5115824;28;20051;-81
2023/07/24 05:24:43;;;;;;;8.60;8.00;;;;;;;;;;5114716;28;20055;-81
2023/07/24 05:27:09;;;;;;;9.25;8.75;;;;;;;;;;5114792;28;20062;-81
2023/07/24 05:29:35;;;;;;;8.75;8.15;;;;;;;;;;5114240;28;20497;-81
2023/07/24 05:32:01;;;;;;;9.95;9.25;;;;;;;;;;5080994;28;20043;-81
2023/07/24 05:34:28;;;;;;;8.65;8.05;;;;;;;;;;5114545;28;20054;-81
2023/07/24 05:36:54;;;;;;;7.55;7.05;;;;;;;;;;5115581;28;20133;-81
2023/07/24 05:39:20;;;;;;;8.77;8.18;;;;;;;;;;5114523;28;20054;-81
2023/07/24 05:41:48;;;;;;;9.68;8.93;;;;;;;;;;5114286;28;20086;-81
2023/07/24 05:44:14;;;;;;;9.13;8.63;;;;;;;;;;5115222;28;20074;-81
2023/07/24 05:46:40;;;;;;;9.30;8.60;;;;;;;;;;5115556;28;20055;-81
2023/07/24 05:49:06;;;;;;;9.30;8.70;;;;;;;;;;5114301;28;20054;-81
2023/07/24 05:51:32;;;;;;;9.65;8.70;;;;;;;;;;5114984;28;20043;-81
2023/07/24 05:53:58;;;;;;;8.48;7.97;;;;;;;;;;5114526;28;20052;-80
2023/07/24 05:56:24;;;;;;;9.45;8.75;;;;;;;;;;5114492;28;20055;-81
2023/07/24 05:58:52;;;;;;;8.45;7.95;;;;;;;;;;5113951;28;20054;-82
2023/07/24 06:01:18;;;;;;;8.60;8.00;;;;;;;;;;5115063;28;20047;-81
2023/07/24 06:03:44;;;;;;;9.43;8.73;;;;;;;;;;5097815;28;20051;-81
2023/07/24 06:06:10;;;;;;;8.55;8.00;;;;;;;;;;5114248;28;20138;-80
2023/07/24 06:08:36;;;;;;;8.32;7.93;;;;;;;;;;5114961;28;20043;-80
2023/07/24 06:11:02;;;;;;;8.27;7.68;;;;;;;;;;5114652;28;20047;-81
2023/07/24 06:13:28;;;;;;;8.32;7.72;;;;;;;;;;5113816;28;20104;-80
2023/07/24 06:15:54;;;;;;;8.02;7.43;;;;;;;;;;5096502;28;20401;-81
2023/07/24 06:18:20;;;;;;;7.97;7.38;;;;;;;;;;5113425;28;20479;-80
2023/07/24 06:20:49;;;;;;;8.13;7.63;;;;;;;;;;5113503;28;20080;-80
2023/07/24 06:23:15;;;;;;;8.85;8.25;;;;;;;;;;5113618;28;20050;-81
2023/07/24 06:25:41;;;;;;;9.80;9.15;;;;;;;;;;5096421;28;20044;-80
2023/07/24 06:28:08;;;;;;;8.25;7.75;;;;;;;;;;5114243;28;20523;-80
2023/07/24 06:30:34;;;;;;;8.32;7.82;;;;;;;;;;5114525;28;20058;-80
2023/07/24 06:33:00;;;;;;;8.35;7.80;;;;;;;;;;5113269;28;20044;-80
2023/07/24 06:35:26;;;;;;;7.53;7.13;;;;;;;;;;5096484;28;20093;-80
2023/07/24 06:37:52;;;;;;;7.68;7.07;;;;;;;;;;5113458;28;20079;-80
2023/07/24 06:40:18;;;;;;;7.90;7.40;;;;;;;;;;5096920;28;20126;-80
2023/07/24 06:42:44;;;;;;;6.90;6.50;;;;;;;;;;5113323;28;20047;-80
2023/07/24 06:45:10;;;;;;;7.63;7.10;;;;;;;;;;5114304;28;20039;-80
2023/07/24 06:47:36;;;;;;;7.47;6.95;;;;;;;;;;5113278;28;20083;-80
2023/07/24 06:50:04;;;;;;;7.85;7.32;;;;;;;;;;5097135;28;20082;-80
2023/07/24 06:52:30;;;;;;;8.00;7.50;;;;;;;;;;5113043;28;20126;-80
2023/07/24 06:54:58;;;;;;;7.78;7.38;;;;;;;;;;5114022;28;20127;-80
2023/07/24 06:57:24;;;;;;;8.73;8.13;;;;;;;;;;5113968;28;20385;-80
2023/07/24 06:59:50;;;;;;;8.18;7.57;;;;;;;;;;5114146;28;20043;-80
2023/07/24 07:02:16;;;;;;;8.57;8.07;;;;;;;;;;5113380;28;20501;-80
2023/07/24 07:04:42;;;;;;;8.75;8.25;;;;;;;;;;5112605;28;20114;-81
2023/07/24 07:07:10;;;;;;;8.52;7.93;;;;;;;;;;5113357;28;20052;-80
2023/07/24 07:09:36;;;;;;;9.05;8.35;;;;;;;;;;5113308;28;20096;-81
2023/07/24 07:12:02;;;;;;;8.98;8.38;;;;;;;;;;5095936;28;20089;-81
2023/07/24 07:14:28;;;;;;;9.20;8.60;;;;;;;;;;5113987;28;20044;-81
2023/07/24 07:16:54;;;;;;;9.63;8.82;;;;;;;;;;5112696;28;20085;-81
2023/07/24 07:19:20;;;;;;;9.10;8.50;;;;;;;;;;5114810;28;20376;-81
2023/07/24 07:21:46;;;;;;;9.65;8.25;;;;;;;;;;5113917;28;20097;-80
2023/07/24 07:24:12;;;;;;;9.45;8.55;;;;;;;;;;5095477;28;20047;-80
2023/07/24 07:26:38;;;;;;;15.68;10.23;;;;;;;;;;5112857;28;20055;-81
2023/07/24 07:29:04;;;;;;;11.13;9.77;;;;;;;;;;5113556;28;20076;-81
2023/07/24 07:31:30;;;;;;;9.88;8.82;;;;;;;;;;5095754;28;20035;-81
2023/07/24 07:33:57;;;;;;;9.93;9.13;;;;;;;;;;5112767;28;20074;-81
2023/07/24 07:36:23;;;;;;;10.32;9.43;;;;;;;;;;5095973;28;20040;-81
2023/07/24 07:38:49;;;;;;;10.90;9.80;;;;;;;;;;5112835;28;20089;-80
2023/07/24 07:41:15;;;;;;;15.65;9.70;;;;;;;;;;5112769;28;20052;-81
2023/07/24 07:43:41;;;;;;;9.75;8.95;;;;;;;;;;5095635;28;20474;-81
2023/07/24 07:46:08;;;;;;;9.02;8.23;;;;;;;;;;5113679;28;20170;-81
2023/07/24 07:48:34;;;;;;;8.52;7.63;;;;;;;;;;5095872;28;20106;-81
2023/07/24 07:51:00;;;;;;;7.65;6.90;;;;;;;;;;5112235;28;20473;-79
2023/07/24 07:53:26;;;;;;;8.45;7.72;;;;;;;;;;5112761;28;20052;-81
2023/07/24 07:55:56;;;;;;;9.60;6.45;;;;;;;;;;5095680;28;20469;-81
2023/07/24 07:58:23;;;;;;;6.45;5.85;;;;;;;;;;5096086;28;20054;-80
2023/07/24 08:00:49;;;;;;;7.20;6.65;;;;;;;;;;5113654;28;20051;-81
2023/07/24 08:03:15;;;;;;;6.28;5.68;;;;;;;;;;5113543;28;20395;-81
2023/07/24 08:05:41;;;;;;;7.00;6.30;;;;;;;;;;5112662;28;20039;-82
2023/07/24 08:08:07;;;;;;;7.60;6.57;;;;;;;;;;5112758;28;20488;-81
2023/07/24 08:10:33;;;;;;;7.22;6.53;;;;;;;;;;5113438;28;20365;-81
2023/07/24 08:12:59;;;;;;;6.47;5.88;;;;;;;;;;5112644;28;20040;-81
2023/07/24 08:15:25;;;;;;;6.57;6.07;;;;;;;;;;5114576;28;20499;-81
2023/07/24 08:17:51;;;;;;;7.47;6.38;;;;;;;;;;5117982;28;20047;-81
2023/07/24 08:20:17;;;;;;;7.65;6.55;;;;;;;;;;5099196;28;20058;-81
2023/07/24 08:22:43;;;;;;;6.45;6.00;;;;;;;;;;5115996;28;20042;-81
2023/07/24 08:25:10;;;;;;;7.05;6.13;;;;;;;;;;5098750;28;20051;-80
2023/07/24 08:27:36;;;;;;;7.38;6.78;;;;;;;;;;5099120;28;20047;-80
2023/07/24 08:30:02;;;;;;;6.95;6.45;;;;;;;;;;5117545;28;20035;-82
2023/07/24 08:32:28;;;;;;;6.95;6.45;;;;;;;;;;5115725;28;20085;-82
2023/07/24 08:34:54;;;;;;;7.65;6.80;;;;;;;;;;5082570;28;20051;-82
2023/07/24 08:37:20;;;;;;;7.03;6.35;;;;;;;;;;5116235;28;20035;-83
2023/07/24 08:39:46;;;;;;;7.05;6.32;;;;;;;;;;5098960;28;20048;-82
2023/07/24 08:42:13;;;;;;;5.97;5.57;;;;;;;;;;5116099;28;20512;-83
2023/07/24 08:44:39;;;;;;;6.10;5.63;;;;;;;;;;5115801;28;20477;-82
2023/07/24 08:47:07;;;;;;;6.63;6.05;;;;;;;;;;5115682;28;20416;-81
2023/07/24 08:49:33;;;;;;;9.13;7.18;;;;;;;;;;5115699;28;20043;-81
2023/07/24 08:52:01;;;;;;;7.13;6.63;;;;;;;;;;5115973;28;20031;-81
2023/07/24 08:54:27;;;;;;;7.05;6.38;;;;;;;;;;5116679;28;20090;-81
2023/07/24 08:56:55;;;;;;;7.78;6.45;;;;;;;;;;5116237;28;20035;-82
2023/07/24 08:59:21;;;;;;;7.20;6.68;;;;;;;;;;5115512;28;20043;-81
2023/07/24 09:01:47;;;;;;;7.70;6.57;;;;;;;;;;5116295;28;20050;-81
2023/07/24 09:04:13;;;;;;;7.85;7.05;;;;;;;;;;5116934;28;20051;-81
2023/07/24 09:06:39;;;;;;;6.97;6.55;;;;;;;;;;5117144;28;20039;-82
2023/07/24 09:09:15;;;;;;;6.75;6.15;;;;;;;;;;5115252;28;20047;-81
2023/07/24 09:11:49;;;;;;;7.45;6.78;;;;;;;;;;5117014;28;20058;-82
2023/07/24 09:14:24;;;;;;;6.00;5.47;;;;;;;;;;5116205;28;20036;-81
2023/07/24 09:17:01;;;;;;;5.40;4.95;;;;;;;;;;5115923;28;20068;-81
2023/07/24 09:19:27;;;;;;;5.40;4.93;;;;;;;;;;5116610;28;20369;-82
2023/07/24 09:21:53;;;;;;;6.10;5.60;;;;;;;;;;5115733;28;20040;-82
2023/07/24 09:24:20;;;;;;;5.97;5.47;;;;;;;;;;5115467;28;20282;-81
2023/07/24 09:26:49;;;;;;;6.45;5.45;;;;;;;;;;5114704;28;20086;-82
2023/07/24 09:29:15;;;;;;;4.55;4.25;;;;;;;;;;5114899;28;20102;-82
2023/07/24 09:31:43;;;;;;;5.25;4.85;;;;;;;;;;5115533;28;20109;-81
2023/07/24 09:34:19;;;;;;;5.60;4.88;;;;;;;;;;5115109;28;20040;-82
2023/07/24 09:36:46;;;;;;;5.45;5.07;;;;;;;;;;5098628;28;20130;-82
2023/07/24 09:39:12;;;;;;;5.28;4.88;;;;;;;;;;5114417;28;20050;-81
2023/07/24 09:41:39;;;;;;;4.82;4.45;;;;;;;;;;5097549;28;20047;-82
2023/07/24 09:44:05;;;;;;;5.00;4.53;;;;;;;;;;5114302;28;20051;-81
2023/07/24 09:46:32;;;;;;;7.70;5.32;;;;;;;;;;5115091;28;20044;-80
2023/07/24 09:48:58;;;;;;;4.53;4.18;;;;;;;;;;5115341;28;20040;-80
2023/07/24 09:51:24;;;;;;;4.55;4.10;;;;;;;;;;5115242;28;20086;-81
2023/07/24 09:53:56;;;;;;;4.38;4.07;;;;;;;;;;5114591;28;20051;-80
2023/07/24 09:56:23;;;;;;;6.05;5.53;;;;;;;;;;5114516;28;20043;-80
2023/07/24 09:58:54;;;;;;;7.75;5.80;;;;;;;;;;5114212;28;20048;-83
2023/07/24 10:01:20;;;;;;;255.65;78.97;;;;;;;;;;5114559;28;20062;-81
2023/07/24 10:03:50;;;;;;;5.57;1.88;;;;;;;;;;5096843;28;20047;-80
2023/07/24 10:06:17;;;;;;;2.78;1.20;;;;;;;;;;5114094;28;20083;-80
2023/07/24 10:08:43;;;;;;;3.83;3.53;;;;;;;;;;5114079;28;20408;-80
2023/07/24 10:11:11;;;;;;;4.15;3.85;;;;;;;;;;5113946;28;20481;-81
2023/07/24 10:13:38;;;;;;;4.32;3.90;;;;;;;;;;5114904;28;20089;-80
2023/07/24 10:16:06;;;;;;;4.30;3.90;;;;;;;;;;5114338;28;20528;-81
2023/07/24 10:18:33;;;;;;;4.57;3.83;;;;;;;;;;5114492;28;20354;-81
2023/07/24 10:21:02;;;;;;;3.97;3.72;;;;;;;;;;5115596;28;20069;-80
2023/07/24 10:23:28;;;;;;;4.55;4.13;;;;;;;;;;5096788;28;20046;-80
2023/07/24 10:25:54;;;;;;;6.07;4.53;;;;;;;;;;5113349;28;20051;-81
2023/07/24 10:28:30;;;;;;;5.03;4.60;;;;;;;;;;5113714;28;20104;-81
2023/07/24 10:30:57;;;;;;;5.35;4.70;;;;;;;;;;5114638;28;20044;-80
2023/07/24 10:33:23;;;;;;;4.18;3.67;;;;;;;;;;5114076;28;20043;-80
2023/07/24 10:36:04;;;;;;;4.97;3.10;;;;;;;;;;5113211;28;20051;-80
2023/07/24 10:38:35;;;;;;;3.08;2.75;;;;;;;;;;5113731;28;20043;-80
2023/07/24 10:41:04;;;;;;;3.08;2.53;;;;;;;;;;5113481;28;20043;-80
2023/07/24 10:43:40;;;;;;;3.90;3.67;;;;;;;;;;5096176;28;20039;-80
2023/07/24 10:46:06;;;;;;;3.85;3.55;;;;;;;;;;5113399;28;20500;-81
2023/07/24 10:48:32;;;;;;;3.97;3.03;;;;;;;;;;5114355;28;20043;-80
2023/07/24 10:50:58;;;;;;;3.15;2.75;;;;;;;;;;5113288;28;20072;-80
2023/07/24 10:53:25;;;;;;;4.03;3.58;;;;;;;;;;5113163;28;20500;-80
2023/07/24 10:55:52;;;;;;;4.07;3.13;;;;;;;;;;5096468;28;20152;-80
2023/07/24 10:58:18;;;;;;;2.75;2.55;;;;;;;;;;5113123;28;20039;-80
2023/07/24 11:00:45;;;;;;;3.45;2.55;;;;;;;;;;5114004;28;20116;-80
2023/07/24 11:03:11;;;;;;;4.40;2.80;;;;;;;;;;5114141;28;20047;-80
2023/07/24 11:05:41;;;;;;;2.50;2.22;;;;;;;;;;5113318;28;20043;-80
2023/07/24 11:08:36;;;;;;;3.75;2.42;;;;;;;;;;5114070;28;20043;-79
2023/07/24 11:11:03;;;;;;;;;;;;;;;;;;5114344;28;20061;-79
2023/07/24 11:13:29;;;;;;;3.72;2.63;;;;;;;;;;5114590;28;19919;-79
2023/07/24 11:15:56;;;;;;;2.65;2.38;;;;;;;;;;5113183;28;20047;-80
2023/07/24 11:18:26;;;;;;;3.88;2.35;;;;;;;;;;5096163;28;20048;-80
2023/07/24 11:20:55;;;;;;;2.65;2.17;;;;;;;;;;5096476;28;20047;-80
2023/07/24 11:23:22;;;;;;;2.47;2.25;;;;;;;;;;5112793;28;20367;-80
2023/07/24 11:25:51;;;;;;;3.45;2.55;;;;;;;;;;5112543;28;20134;-81
2023/07/24 11:28:17;;;;;;;2.60;2.38;;;;;;;;;;5113587;28;20570;-80
2023/07/24 11:30:43;;;;;;;3.33;2.30;;;;;;;;;;5113949;28;20055;-80
2023/07/24 11:33:14;;;;;;;4.13;3.13;;;;;;;;;;5113813;28;20397;-80
2023/07/24 11:35:41;;;;;;;4.30;2.67;;;;;;;;;;5112773;28;20533;-80
2023/07/24 11:38:09;;;;;;;3.88;2.70;;;;;;;;;;5112741;28;20050;-81
2023/07/24 11:40:38;;;;;;;2.97;2.20;;;;;;;;;;5114482;28;20473;-81
2023/07/24 11:43:05;;;;;;;3.55;3.15;;;;;;;;;;5113823;28;20130;-81
2023/07/24 11:45:31;;;;;;;3.40;3.10;;;;;;;;;;5113618;28;20095;-82
2023/07/24 11:47:57;;;;;;;3.60;3.30;;;;;;;;;;5112503;28;20055;-81
2023/07/24 11:50:24;;;;;;;3.40;3.13;;;;;;;;;;5116383;28;20469;-82
2023/07/24 11:52:53;;;;;;;2.90;2.70;;;;;;;;;;5099339;28;20039;-81
2023/07/24 11:55:21;;;;;;;5.30;3.05;;;;;;;;;;5116669;28;20040;-81
2023/07/24 11:58:00;;;;;;;4.03;3.40;;;;;;;;;;5116511;28;20040;-81
2023/07/24 12:00:26;;;;;;;5.07;3.22;;;;;;;;;;5099567;28;20079;-81
2023/07/24 12:02:53;;;;;;;3.33;3.08;;;;;;;;;;5117506;28;20040;-81
2023/07/24 12:05:19;;;;;;;4.15;3.00;;;;;;;;;;5116488;28;20042;-80
2023/07/24 12:07:46;;;;;;;2.75;2.53;;;;;;;;;;5117455;28;20050;-81
2023/07/24 12:10:13;;;;;;;2.33;2.22;;;;;;;;;;5116161;28;20083;-81
2023/07/24 12:12:39;;;;;;;3.05;2.70;;;;;;;;;;5117958;28;20039;-81
2023/07/24 12:15:06;;;;;;;4.40;2.90;;;;;;;;;;5099398;28;20135;-81
2023/07/24 12:17:32;;;;;;;3.92;3.38;;;;;;;;;;5117056;28;20043;-81
2023/07/24 12:19:58;;;;;;;3.22;2.60;;;;;;;;;;5116259;28;20040;-81
2023/07/24 12:22:24;;;;;;;4.22;2.83;;;;;;;;;;5117198;28;20485;-81
2023/07/24 12:24:50;;;;;;;3.47;3.25;;;;;;;;;;5098977;28;20059;-81
2023/07/24 12:27:16;;;;;;;3.80;3.50;;;;;;;;;;5115872;28;20051;-80
2023/07/24 12:29:42;;;;;;;4.63;3.22;;;;;;;;;;5099896;28;20044;-82
2023/07/24 12:32:08;;;;;;;5.88;3.83;;;;;;;;;;5116676;28;20048;-81
2023/07/24 12:34:34;;;;;;;3.10;2.80;;;;;;;;;;5116866;28;20047;-81
2023/07/24 12:37:00;;;;;;;3.42;2.70;;;;;;;;;;5115738;28;20153;-82
2023/07/24 12:39:26;;;;;;;3.15;2.95;;;;;;;;;;5116779;28;20044;-81
2023/07/24 12:41:53;;;;;;;4.03;3.58;;;;;;;;;;5099207;28;20073;-82
2023/07/24 12:44:19;;;;;;;3.83;3.53;;;;;;;;;;5115780;28;20052;-81
2023/07/24 12:46:45;;;;;;;5.20;3.95;;;;;;;;;;5116591;28;20073;-82
2023/07/24 12:49:11;;;;;;;6.45;4.30;;;;;;;;;;5098633;28;20051;-81
2023/07/24 12:51:37;;;;;;;3.88;3.58;;;;;;;;;;5116481;28;20481;-81
2023/07/24 12:54:03;;;;;;;4.03;3.70;;;;;;;;;;5115489;28;20083;-81
2023/07/24 12:56:29;;;;;;;4.18;3.78;;;;;;;;;;5116501;28;20082;-81
2023/07/24 12:58:56;;;;;;;4.40;3.95;;;;;;;;;;5117285;28;20057;-82
2023/07/24 13:01:22;;;;;;;4.53;4.03;;;;;;;;;;5097547;28;20044;-81
2023/07/24 13:03:48;;;;;;;4.53;4.13;;;;;;;;;;5115413;28;20477;-81
2023/07/24 13:06:14;;;;;;;7.50;4.30;;;;;;;;;;5116344;28;20058;-81
2023/07/24 13:08:40;;;;;;;5.88;3.70;;;;;;;;;;5115296;28;20051;-81
2023/07/24 13:11:06;;;;;;;4.72;3.92;;;;;;;;;;5115025;28;20058;-81
2023/07/24 13:13:32;;;;;;;3.63;3.30;;;;;;;;;;5116218;28;20048;-81
2023/07/24 13:15:58;;;;;;;4.25;3.53;;;;;;;;;;5115165;28;20051;-81
2023/07/24 13:18:24;;;;;;;4.57;3.25;;;;;;;;;;5115954;28;20043;-81
2023/07/24 13:20:50;;;;;;;3.05;2.55;;;;;;;;;;5115862;28;20188;-80
2023/07/24 13:23:16;;;;;;;4.13;3.72;;;;;;;;;;5116300;28;20039;-81
2023/07/24 13:25:43;;;;;;;3.25;2.55;;;;;;;;;;5097562;28;20430;-81
2023/07/24 13:28:09;;;;;;;3.75;2.60;;;;;;;;;;5115919;28;20082;-81
2023/07/24 13:30:35;;;;;;;2.78;2.58;;;;;;;;;;5114893;28;20052;-81
2023/07/24 13:33:04;;;;;;;3.65;3.35;;;;;;;;;;5114539;28;20043;-80
2023/07/24 13:35:30;;;;;;;4.35;3.53;;;;;;;;;;5115787;28;20050;-81
2023/07/24 13:37:56;;;;;;;4.35;3.58;;;;;;;;;;5115685;28;20043;-81
2023/07/24 13:40:22;;;;;;;4.97;3.38;;;;;;;;;;5115550;28;20051;-81
2023/07/24 13:42:48;;;;;;;5.05;3.28;;;;;;;;;;5115578;28;20043;-81
2023/07/24 13:45:14;;;;;;;3.67;3.38;;;;;;;;;;5115140;28;20431;-81
2023/07/24 13:47:40;;;;;;;4.28;3.97;;;;;;;;;;5098359;28;20052;-81
2023/07/24 13:50:07;;;;;;;2.28;1.88;;;;;;;;;;5114485;28;20388;-81
2023/07/24 13:52:33;;;;;;;2.38;1.80;;;;;;;;;;5114500;28;20486;-81
2023/07/24 13:55:00;;;;;;;7.45;3.40;;;;;;;;;;5097727;28;20070;-86
2023/07/24 13:57:26;;;;;;;9.57;4.18;;;;;;;;;;5114139;28;20452;-82
2023/07/24 13:59:52;;;;;;;4.47;3.55;;;;;;;;;;5097633;28;20051;-81
2023/07/24 14:02:19;;;;;;;7.30;3.67;;;;;;;;;;5114168;28;20052;-81
2023/07/24 14:04:45;;;;;;;7.60;4.88;;;;;;;;;;5080202;28;20047;-82
2023/07/24 14:07:13;;;;;;;8.38;5.00;;;;;;;;;;5115271;28;20403;-80
2023/07/24 14:09:39;;;;;;;6.35;5.75;;;;;;;;;;5114401;28;20079;-80
2023/07/24 14:12:06;;;;;;;5.93;5.43;;;;;;;;;;5115743;28;20039;-82
2023/07/24 14:14:32;;;;;;;5.07;4.57;;;;;;;;;;5114975;28;20047;-86
2023/07/24 14:16:58;;;;;;;5.63;5.20;;;;;;;;;;5115879;28;20485;-87
2023/07/24 14:19:24;;;;;;;6.50;5.90;;;;;;;;;;5115505;28;20047;-87
2023/07/24 14:21:51;;;;;;;6.68;6.10;;;;;;;;;;5114807;28;20044;-85
2023/07/24 14:24:17;;;;;;;9.13;6.43;;;;;;;;;;5114209;28;20055;-85
2023/07/24 14:26:44;;;;;;;8.25;7.40;;;;;;;;;;5114205;28;20059;-85
2023/07/24 14:29:11;;;;;;;7.38;6.78;;;;;;;;;;5114446;28;20047;-85
2023/07/24 14:31:37;;;;;;;7.68;7.10;;;;;;;;;;5114140;28;20123;-84
2023/07/24 14:34:03;;;;;;;7.72;7.03;;;;;;;;;;5114202;28;20512;-84
2023/07/24 14:36:33;;;;;;;7.50;6.90;;;;;;;;;;5114881;28;20043;-84
2023/07/24 14:39:03;;;;;;;8.82;8.02;;;;;;;;;;5115229;28;20126;-84
2023/07/24 14:41:29;;;;;;;7.68;7.07;;;;;;;;;;5114927;28;20496;-84